Time;durP1;ratioP1;P1;durP2;ratioP2;P2;SDS_P1;SDS_P2;PMS_P1;PMS_P2;Temp;Humidity;BMP_temperature;BMP_pressure;BME280_temperature;BME280_humidity;BME280_pressure;Samples;Min_cycle;Max_cycle;Signal;HPM_P1;HPM_P2
2021/07/18 00:02:17;;;;;;;5.25;1.88;;;;;;;19.07;67.82;100964.22;4973558;28;20051;-80
2021/07/18 00:04:44;;;;;;;4.60;1.50;;;;;;;19.07;67.66;100974.97;4952915;28;20051;-79
2021/07/18 00:07:11;;;;;;;4.85;1.85;;;;;;;19.02;67.68;100961.03;4960502;28;20124;-81
2021/07/18 00:09:37;;;;;;;4.15;1.88;;;;;;;18.97;68.73;100965.00;4958446;29;20051;-80
2021/07/18 00:12:04;;;;;;;3.30;1.85;;;;;;;18.92;68.97;100957.28;4961912;29;20055;-80
2021/07/18 00:14:31;;;;;;;4.50;1.80;;;;;;;18.85;68.68;100956.03;4961381;29;20047;-80
2021/07/18 00:16:57;;;;;;;6.13;2.08;;;;;;;18.80;68.86;100960.88;4958571;28;20043;-80
2021/07/18 00:19:24;;;;;;;4.68;2.20;;;;;;;18.77;69.14;100951.22;4969205;28;20057;-80
2021/07/18 00:21:50;;;;;;;7.15;1.90;;;;;;;18.75;69.25;100954.97;4961784;28;20082;-81
2021/07/18 00:24:17;;;;;;;4.88;1.77;;;;;;;18.73;69.01;100956.94;4969002;28;20055;-80
2021/07/18 00:26:44;;;;;;;2.20;1.60;;;;;;;18.72;69.14;100957.91;4963787;29;20149;-80
2021/07/18 00:29:11;;;;;;;4.20;1.65;;;;;;;18.72;69.27;100952.53;4959982;29;20057;-80
2021/07/18 00:31:37;;;;;;;4.03;2.00;;;;;;;18.70;69.20;100954.47;4970589;28;20055;-80
2021/07/18 00:34:04;;;;;;;4.63;1.80;;;;;;;18.66;69.79;100958.31;4963315;28;20062;-80
2021/07/18 00:36:32;;;;;;;4.70;1.70;;;;;;;18.61;70.10;100953.28;4971786;28;20115;-80
2021/07/18 00:38:58;;;;;;;4.80;2.05;;;;;;;18.60;70.08;100959.59;4967340;29;20051;-80
2021/07/18 00:41:28;;;;;;;2.22;1.60;;;;;;;18.56;70.02;100955.41;4970473;28;20652;-80
2021/07/18 00:43:55;;;;;;;3.78;1.65;;;;;;;18.54;70.27;100957.34;4976082;29;20074;-80
2021/07/18 00:46:21;;;;;;;3.78;1.65;;;;;;;18.48;70.33;100953.28;4970413;28;20473;-80
2021/07/18 00:48:48;;;;;;;3.10;1.80;;;;;;;18.44;70.74;100957.13;4983582;28;20530;-79
2021/07/18 00:51:15;;;;;;;6.60;2.15;;;;;;;18.39;70.87;100961.13;4984307;28;20078;-80
2021/07/18 00:53:42;;;;;;;3.63;1.65;;;;;;;18.36;70.75;100953.28;4986075;28;20090;-79
2021/07/18 00:56:09;;;;;;;4.90;1.85;;;;;;;18.33;70.85;100961.53;4974691;28;20566;-80
2021/07/18 00:58:37;;;;;;;5.60;1.95;;;;;;;18.30;71.27;100957.25;4976116;28;20106;-80
2021/07/18 01:01:04;;;;;;;3.95;1.70;;;;;;;18.33;70.99;100965.06;4984216;28;20106;-80
2021/07/18 01:03:32;;;;;;;3.92;1.60;;;;;;;18.31;70.59;100960.78;4977941;28;20043;-80
2021/07/18 01:06:00;;;;;;;3.38;1.83;;;;;;;18.30;71.09;100970.66;4984444;28;20082;-80
2021/07/18 01:08:27;;;;;;;4.55;1.75;;;;;;;18.26;71.08;100963.78;4966606;28;20052;-81
2021/07/18 01:10:54;;;;;;;4.40;1.85;;;;;;;18.23;71.31;100972.06;4983722;28;20130;-80
2021/07/18 01:13:21;;;;;;;2.10;1.30;;;;;;;18.20;70.92;100965.09;4972810;28;20450;-80
2021/07/18 01:15:48;;;;;;;4.40;1.70;;;;;;;18.21;71.10;100977.53;4975079;29;20582;-79
2021/07/18 01:18:15;;;;;;;5.95;1.83;;;;;;;18.20;70.78;100972.25;4971050;28;20102;-80
2021/07/18 01:20:45;;;;;;;3.08;1.95;;;;;;;18.18;70.99;100974.19;4976838;28;20063;-82
2021/07/18 01:23:11;;;;;;;4.95;1.80;;;;;;;18.16;71.16;100970.75;4963877;28;20051;-80
2021/07/18 01:25:39;;;;;;;3.75;1.90;;;;;;;18.13;71.39;100962.91;4966043;28;20379;-82
2021/07/18 01:28:08;;;;;;;5.40;1.77;;;;;;;18.11;71.54;100959.47;4962124;29;20061;-81
2021/07/18 01:30:35;;;;;;;2.22;1.60;;;;;;;18.09;71.46;100962.31;4955944;28;20059;-82
2021/07/18 01:33:03;;;;;;;4.00;1.60;;;;;;;18.05;71.69;100965.28;4970163;28;20059;-82
2021/07/18 01:35:30;;;;;;;2.83;1.50;;;;;;;18.01;71.55;100961.09;4961366;28;20138;-82
2021/07/18 01:37:57;;;;;;;4.78;1.70;;;;;;;17.96;71.81;100965.91;4958901;28;20117;-82
2021/07/18 01:40:24;;;;;;;3.40;1.80;;;;;;;17.94;71.81;100968.72;4957777;28;20085;-82
2021/07/18 01:42:54;;;;;;;4.38;1.75;;;;;;;17.92;72.17;100975.13;4969749;28;20126;-82
2021/07/18 01:45:21;;;;;;;4.97;1.60;;;;;;;17.90;72.15;100969.03;4959629;28;20139;-82
2021/07/18 01:47:48;;;;;;;3.47;1.80;;;;;;;17.91;72.34;100970.75;4965401;28;20047;-81
2021/07/18 01:50:15;;;;;;;3.67;1.65;;;;;;;17.87;72.54;100964.72;4978841;28;20050;-82
2021/07/18 01:52:43;;;;;;;4.47;1.83;;;;;;;17.85;72.59;100967.50;4972467;28;20054;-81
2021/07/18 01:55:11;;;;;;;4.32;1.70;;;;;;;17.79;72.85;100965.22;4965844;28;20051;-81
2021/07/18 01:57:39;;;;;;;4.18;1.95;;;;;;;17.77;72.90;100959.16;4957008;29;20052;-82
2021/07/18 02:00:09;;;;;;;6.07;1.90;;;;;;;17.70;73.25;100965.88;4948266;29;20119;-82
2021/07/18 02:02:36;;;;;;;3.58;1.58;;;;;;;17.68;73.19;100970.47;4964596;28;20051;-82
2021/07/18 02:05:07;;;;;;;3.10;1.70;;;;;;;17.67;73.53;100967.88;4959493;29;20127;-82
2021/07/18 02:07:36;;;;;;;3.45;1.67;;;;;;;17.64;73.59;100965.41;4962064;29;20051;-82
2021/07/18 02:10:04;;;;;;;3.05;1.70;;;;;;;17.60;73.90;100970.09;4962924;28;20061;-82
2021/07/18 02:12:33;;;;;;;4.22;1.92;;;;;;;17.58;74.06;100972.03;4972741;28;20049;-82
2021/07/18 02:14:59;;;;;;;5.15;1.83;;;;;;;17.53;74.66;100966.09;4954142;28;20055;-81
2021/07/18 02:17:26;;;;;;;2.67;1.60;;;;;;;17.54;74.98;100971.38;4971190;28;20153;-82
2021/07/18 02:19:53;;;;;;;4.82;1.77;;;;;;;17.50;74.50;100969.84;4964620;29;20047;-82
2021/07/18 02:22:31;;;;;;;3.63;2.00;;;;;;;17.48;74.48;100970.91;4961100;28;20098;-82
2021/07/18 02:24:58;;;;;;;4.28;2.30;;;;;;;17.46;74.84;100975.53;4948814;28;20126;-82
2021/07/18 02:27:24;;;;;;;6.22;1.65;;;;;;;17.41;75.19;100966.94;4961449;28;20065;-82
2021/07/18 02:29:51;;;;;;;2.60;1.90;;;;;;;17.39;75.90;100960.81;4939986;28;20083;-82
2021/07/18 02:32:18;;;;;;;3.80;1.95;;;;;;;17.37;75.93;100960.91;4963330;28;20074;-81
2021/07/18 02:34:44;;;;;;;5.95;1.80;;;;;;;17.37;76.08;100960.06;4963506;28;20102;-82
2021/07/18 02:37:11;;;;;;;4.25;2.08;;;;;;;17.34;76.19;100965.59;4955843;29;20051;-81
2021/07/18 02:39:37;;;;;;;6.40;1.90;;;;;;;17.24;76.60;100962.69;4962350;28;20578;-82
2021/07/18 02:42:06;;;;;;;4.03;1.92;;;;;;;17.15;76.80;100958.81;4962720;28;20083;-82
2021/07/18 02:44:32;;;;;;;4.70;1.85;;;;;;;17.08;76.90;100954.81;4974903;28;20065;-82
2021/07/18 02:46:59;;;;;;;3.42;1.63;;;;;;;17.06;77.34;100961.19;4964211;28;20055;-82
2021/07/18 02:49:26;;;;;;;3.10;1.60;;;;;;;17.04;77.74;100963.13;4963436;28;20047;-82
2021/07/18 02:51:52;;;;;;;3.22;2.08;;;;;;;16.99;77.79;100951.88;4963357;28;20055;-81
2021/07/18 02:54:20;;;;;;;7.07;2.13;;;;;;;16.98;77.43;100955.50;4970772;28;20065;-82
2021/07/18 02:56:46;;;;;;;5.78;2.20;;;;;;;16.92;77.54;100948.72;4972536;28;20107;-81
2021/07/18 02:59:13;;;;;;;4.07;2.20;;;;;;;16.91;78.26;100955.03;4976761;28;20074;-82
2021/07/18 03:01:39;;;;;;;4.78;1.80;;;;;;;16.90;77.59;100950.63;4971466;29;20483;-82
2021/07/18 03:04:06;;;;;;;3.67;2.28;;;;;;;16.88;77.83;100965.06;4963268;28;20139;-82
2021/07/18 03:06:33;;;;;;;2.53;2.00;;;;;;;16.82;77.98;100951.16;4962950;28;20055;-82
2021/07/18 03:09:00;;;;;;;6.88;1.80;;;;;;;16.83;77.93;100955.53;4970095;28;20047;-82
2021/07/18 03:11:27;;;;;;;4.55;1.77;;;;;;;16.81;77.74;100957.44;4961593;28;20051;-82
2021/07/18 03:13:53;;;;;;;2.60;1.85;;;;;;;16.76;78.53;100950.66;4961182;29;20062;-82
2021/07/18 03:16:20;;;;;;;4.55;1.90;;;;;;;16.77;79.13;100952.38;4941974;29;20171;-82
2021/07/18 03:18:49;;;;;;;3.67;1.80;;;;;;;16.79;79.02;100950.47;4924584;29;20118;-82
2021/07/18 03:21:16;;;;;;;4.00;1.60;;;;;;;16.78;79.03;100948.75;4950741;28;20544;-81
2021/07/18 03:23:42;;;;;;;3.50;1.98;;;;;;;16.76;79.28;100954.19;4961317;28;20061;-81
2021/07/18 03:26:09;;;;;;;3.17;1.90;;;;;;;16.77;79.42;100952.38;4960391;28;20065;-82
2021/07/18 03:28:36;;;;;;;2.20;1.77;;;;;;;16.78;79.43;100949.63;4961362;29;20046;-82
2021/07/18 03:31:03;;;;;;;2.88;1.70;;;;;;;16.79;79.28;100945.13;4964521;28;20051;-81
2021/07/18 03:33:30;;;;;;;2.65;1.50;;;;;;;16.80;79.63;100946.84;4968225;28;20051;-82
2021/07/18 03:35:56;;;;;;;3.63;1.85;;;;;;;16.79;79.28;100947.78;4967117;29;20137;-82
2021/07/18 03:38:23;;;;;;;2.65;1.70;;;;;;;16.78;79.41;100946.09;4966871;28;20047;-82
2021/07/18 03:40:49;;;;;;;4.65;1.80;;;;;;;16.78;78.94;100954.97;4972938;28;20094;-82
2021/07/18 03:43:16;;;;;;;4.22;2.13;;;;;;;16.77;79.59;100955.06;4967894;28;20239;-81
2021/07/18 03:45:43;;;;;;;4.05;1.90;;;;;;;16.74;79.76;100956.09;4968038;28;20050;-81
2021/07/18 03:48:10;;;;;;;5.93;2.22;;;;;;;16.78;79.60;100952.28;4961563;29;20114;-82
2021/07/18 03:50:37;;;;;;;4.22;2.00;;;;;;;16.78;79.58;100959.44;4967461;29;20066;-82
2021/07/18 03:53:03;;;;;;;2.72;1.80;;;;;;;16.79;79.64;100961.16;4966704;29;20146;-82
2021/07/18 03:55:30;;;;;;;5.18;1.73;;;;;;;16.79;80.10;100951.34;4966046;29;20115;-81
2021/07/18 03:57:56;;;;;;;5.75;2.10;;;;;;;16.79;79.83;100953.16;4964555;29;20520;-82
2021/07/18 04:00:23;;;;;;;4.60;1.98;;;;;;;16.79;79.90;100953.16;4961112;28;20051;-82
2021/07/18 04:02:50;;;;;;;3.13;1.73;;;;;;;16.78;79.46;100959.44;4958402;29;20805;-81
2021/07/18 04:05:17;;;;;;;5.97;2.03;;;;;;;16.78;79.59;100962.13;4958455;29;20073;-82
2021/07/18 04:07:43;;;;;;;5.32;1.83;;;;;;;16.80;79.47;100969.09;4958817;29;20047;-81
2021/07/18 04:10:13;;;;;;;5.80;2.25;;;;;;;16.81;79.53;100975.31;4958440;28;20055;-81
2021/07/18 04:12:41;;;;;;;6.47;1.90;;;;;;;16.83;79.63;100978.75;4970023;28;20129;-81
2021/07/18 04:15:08;;;;;;;4.78;1.75;;;;;;;16.81;79.86;100972.63;4978127;28;20550;-82
2021/07/18 04:17:35;;;;;;;4.78;1.90;;;;;;;16.86;79.80;100978.53;4965176;28;20134;-81
2021/07/18 04:20:03;;;;;;;7.60;1.92;;;;;;;16.91;80.29;100971.06;4955946;29;20122;-81
2021/07/18 04:22:30;;;;;;;3.33;1.50;;;;;;;16.93;79.73;100971.84;4957477;28;20146;-81
2021/07/18 04:24:57;;;;;;;5.05;1.83;;;;;;;16.98;79.80;100975.09;4970976;28;20116;-81
2021/07/18 04:27:24;;;;;;;3.05;1.85;;;;;;;16.95;79.82;100972.59;4977704;28;20070;-81
2021/07/18 04:29:51;;;;;;;4.35;1.85;;;;;;;16.98;79.84;100976.91;4978004;28;20039;-81
2021/07/18 04:32:17;;;;;;;6.97;2.25;;;;;;;16.97;79.74;100968.03;4965606;28;20085;-82
2021/07/18 04:34:44;;;;;;;4.18;2.15;;;;;;;17.00;79.78;100981.19;4961616;29;20051;-81
2021/07/18 04:37:11;;;;;;;6.07;1.95;;;;;;;17.00;80.22;100975.81;4958114;29;20055;-81
2021/07/18 04:39:38;;;;;;;2.70;2.05;;;;;;;17.06;80.11;100983.47;4972214;28;20637;-81
2021/07/18 04:42:05;;;;;;;2.42;1.95;;;;;;;17.09;80.16;100972.56;4971023;28;20095;-81
2021/07/18 04:44:32;;;;;;;2.10;1.58;;;;;;;17.18;80.33;100981.81;4976348;28;20098;-81
2021/07/18 04:46:59;;;;;;;2.42;1.85;;;;;;;17.24;80.40;100978.75;4983222;28;20122;-81
2021/07/18 04:49:26;;;;;;;4.93;1.92;;;;;;;17.28;80.37;100980.28;4979211;28;20035;-81
2021/07/18 04:51:53;;;;;;;3.85;1.85;;;;;;;17.31;79.81;100981.88;4973872;28;20055;-82
2021/07/18 04:54:21;;;;;;;4.43;2.00;;;;;;;17.30;79.77;100989.06;4959021;29;20513;-82
2021/07/18 04:56:48;;;;;;;3.75;1.80;;;;;;;17.34;79.97;100984.34;4952170;29;20111;-82
2021/07/18 04:59:14;;;;;;;4.35;2.20;;;;;;;17.41;79.90;100991.88;4939706;29;20521;-82
2021/07/18 05:01:42;;;;;;;2.58;2.10;;;;;;;17.43;79.89;100992.66;4953843;28;20051;-82
2021/07/18 05:04:08;;;;;;;6.10;2.03;;;;;;;17.49;79.41;100994.91;4960173;28;20083;-82
2021/07/18 05:06:36;;;;;;;3.90;1.95;;;;;;;17.53;79.70;100995.56;4963386;29;20054;-81
2021/07/18 05:09:04;;;;;;;5.43;2.17;;;;;;;17.56;79.27;101000.72;4976792;28;20103;-81
2021/07/18 05:11:31;;;;;;;2.63;1.90;;;;;;;17.59;79.13;101010.38;4980580;28;20134;-81
2021/07/18 05:13:57;;;;;;;6.05;2.33;;;;;;;17.61;78.88;101003.09;4993973;28;20101;-81
2021/07/18 05:16:25;;;;;;;2.28;1.75;;;;;;;17.70;79.10;101010.53;4997321;28;20042;-81
2021/07/18 05:18:52;;;;;;;3.05;1.92;;;;;;;17.77;78.88;101006.50;4949154;29;20458;-82
2021/07/18 05:21:19;;;;;;;3.95;2.03;;;;;;;17.84;79.09;100999.75;4963109;28;20051;-81
2021/07/18 05:23:45;;;;;;;4.25;2.35;;;;;;;17.89;78.04;100997.63;4962708;28;20608;-82
2021/07/18 05:26:13;;;;;;;3.42;2.10;;;;;;;17.93;77.80;101009.88;4963001;28;20502;-82
2021/07/18 05:28:40;;;;;;;2.67;1.92;;;;;;;17.97;77.55;101006.00;4962461;28;20102;-82
2021/07/18 05:31:07;;;;;;;2.88;2.05;;;;;;;18.00;78.29;100999.56;4962329;28;20070;-82
2021/07/18 05:33:33;;;;;;;4.35;1.92;;;;;;;18.08;78.12;101002.59;4961616;28;20043;-82
2021/07/18 05:36:00;;;;;;;5.07;2.28;;;;;;;18.12;77.01;100991.53;4960657;29;20055;-81
2021/07/18 05:38:27;;;;;;;2.92;1.98;;;;;;;18.14;76.98;101000.34;4959265;28;20057;-81
2021/07/18 05:40:59;;;;;;;4.22;1.92;;;;;;;18.21;76.60;100998.97;4968386;28;20054;-82
2021/07/18 05:43:26;;;;;;;3.30;1.70;;;;;;;18.29;76.20;101002.94;4963445;28;20123;-82
2021/07/18 05:45:52;;;;;;;3.17;1.92;;;;;;;18.35;76.39;101006.06;4961674;28;20063;-82
2021/07/18 05:48:23;;;;;;;3.60;1.67;;;;;;;18.45;75.88;101011.63;4960971;28;20047;-82
2021/07/18 05:50:51;;;;;;;4.57;1.80;;;;;;;18.53;75.82;101010.13;4956771;29;20123;-81
2021/07/18 05:53:18;;;;;;;2.45;1.77;;;;;;;18.63;75.79;101017.56;4964318;29;20059;-81
2021/07/18 05:55:45;;;;;;;5.30;1.70;;;;;;;18.69;74.82;101014.44;4963927;28;20483;-81
2021/07/18 05:58:11;;;;;;;4.00;1.90;;;;;;;18.74;74.81;101012.28;4963288;28;20051;-82
2021/07/18 06:00:40;;;;;;;2.55;1.58;;;;;;;18.79;74.43;101013.66;4962766;29;20082;-81
2021/07/18 06:03:07;;;;;;;3.00;1.55;;;;;;;18.85;74.39;101009.72;4949578;28;20104;-81
2021/07/18 06:05:35;;;;;;;3.97;1.90;;;;;;;18.97;73.44;101005.28;4943361;29;20056;-81
2021/07/18 06:08:03;;;;;;;5.05;2.10;;;;;;;19.07;73.78;101015.22;4961411;28;20050;-81
2021/07/18 06:10:29;;;;;;;3.22;1.85;;;;;;;19.23;72.88;101010.44;4957320;28;20480;-81
2021/07/18 06:12:57;;;;;;;2.92;1.85;;;;;;;19.41;72.20;101010.06;4956636;29;20145;-81
2021/07/18 06:15:23;;;;;;;3.95;1.50;;;;;;;19.59;70.83;101012.28;4960243;28;20570;-81
2021/07/18 06:17:50;;;;;;;3.45;1.60;;;;;;;19.77;70.50;101014.56;4960651;28;20043;-81
2021/07/18 06:20:19;;;;;;;3.50;1.35;;;;;;;20.05;69.55;101024.94;4960732;28;20051;-81
2021/07/18 06:22:51;;;;;;;3.42;1.50;;;;;;;20.48;68.39;101019.78;4961621;29;20471;-81
2021/07/18 06:25:18;;;;;;;4.43;1.70;;;;;;;20.99;67.01;101016.63;4960884;28;20070;-81
2021/07/18 06:27:46;;;;;;;3.50;1.50;;;;;;;21.45;64.17;101021.00;4961180;29;20074;-81
2021/07/18 06:30:14;;;;;;;4.40;1.30;;;;;;;21.76;61.35;101027.38;4960715;29;20051;-81
2021/07/18 06:32:43;;;;;;;2.35;1.30;;;;;;;21.94;59.86;101018.59;4961383;28;20145;-80
2021/07/18 06:35:11;;;;;;;2.20;1.27;;;;;;;22.19;58.67;101025.53;4960695;29;20102;-81
2021/07/18 06:37:38;;;;;;;4.57;1.20;;;;;;;22.30;58.06;101029.97;4960940;29;20078;-81
2021/07/18 06:40:05;;;;;;;3.00;1.25;;;;;;;22.29;56.82;101023.72;4963533;28;20090;-80
2021/07/18 06:42:33;;;;;;;2.10;1.10;;;;;;;22.61;55.58;101023.63;4963156;28;20074;-79
2021/07/18 06:45:00;;;;;;;2.35;1.30;;;;;;;22.91;56.38;101021.94;4967678;28;20047;-80
2021/07/18 06:47:29;;;;;;;1.23;1.00;;;;;;;23.24;54.85;101021.66;4968640;29;20051;-81
2021/07/18 06:49:57;;;;;;;1.85;1.10;;;;;;;23.30;53.18;101018.38;4958341;29;20082;-81
2021/07/18 06:52:27;;;;;;;1.75;0.90;;;;;;;23.41;50.60;101023.69;4963810;29;20055;-81
2021/07/18 06:54:54;;;;;;;2.28;0.82;;;;;;;23.37;50.41;101019.53;4961692;28;20063;-81
2021/07/18 06:57:21;;;;;;;2.03;0.80;;;;;;;23.36;50.43;101022.38;4950077;29;20043;-81
2021/07/18 06:59:48;;;;;;;2.60;0.90;;;;;;;23.40;50.37;101024.66;4972866;29;20078;-80
2021/07/18 07:02:15;;;;;;;3.03;1.20;;;;;;;23.32;49.80;101024.50;4973904;28;20110;-81
2021/07/18 07:04:42;;;;;;;2.97;1.08;;;;;;;23.36;50.67;101023.22;4975384;29;20074;-81
2021/07/18 07:07:09;;;;;;;2.20;0.95;;;;;;;23.59;50.46;101023.88;4973424;28;20066;-81
2021/07/18 07:09:38;;;;;;;1.83;1.20;;;;;;;23.82;50.70;101029.84;4967079;29;20071;-82
2021/07/18 07:12:06;;;;;;;2.28;0.93;;;;;;;23.85;50.14;101024.16;4971373;28;20043;-81
2021/07/18 07:14:32;;;;;;;3.55;1.30;;;;;;;24.02;51.88;101023.47;4963962;28;20043;-81
2021/07/18 07:16:59;;;;;;;3.10;1.17;;;;;;;23.91;48.58;101018.19;4962925;29;20047;-81
2021/07/18 07:19:25;;;;;;;2.33;0.98;;;;;;;23.85;49.47;101018.75;4962203;29;20137;-81
2021/07/18 07:21:52;;;;;;;2.25;0.80;;;;;;;23.89;49.11;101019.34;4961363;28;20146;-82
2021/07/18 07:24:19;;;;;;;2.58;1.10;;;;;;;23.93;49.41;101016.19;4957246;28;20079;-81
2021/07/18 07:26:45;;;;;;;2.25;1.10;;;;;;;23.93;49.97;101016.19;4955331;28;20047;-82
2021/07/18 07:29:12;;;;;;;1.80;1.30;;;;;;;24.01;49.38;101013.63;4964042;28;20043;-82
2021/07/18 07:31:39;;;;;;;2.45;1.33;;;;;;;24.19;50.54;101015.63;4948150;28;20058;-81
2021/07/18 07:34:06;;;;;;;1.08;0.98;;;;;;;24.39;49.97;101014.63;4955967;29;20055;-81
2021/07/18 07:36:33;;;;;;;3.67;1.58;;;;;;;24.44;48.06;101013.16;4957162;29;20062;-81
2021/07/18 07:38:59;;;;;;;2.00;1.10;;;;;;;24.60;49.20;101007.13;4964638;28;20053;-81
2021/07/18 07:41:27;;;;;;;1.95;1.10;;;;;;;24.60;47.99;100995.44;4977390;28;20498;-81
2021/07/18 07:43:59;;;;;;;1.90;1.27;;;;;;;24.61;47.98;101013.41;4940560;29;20060;-82
2021/07/18 07:46:28;;;;;;;1.55;1.00;;;;;;;24.51;48.40;101010.72;4945239;28;20058;-81
2021/07/18 07:48:55;;;;;;;2.35;0.95;;;;;;;24.36;48.02;101002.22;4957570;29;20481;-81
2021/07/18 07:51:22;;;;;;;4.05;1.20;;;;;;;24.35;48.83;101005.94;4957055;29;20051;-81
2021/07/18 07:53:50;;;;;;;1.70;0.93;;;;;;;24.62;49.04;101007.84;4956473;29;20047;-81
2021/07/18 07:56:18;;;;;;;2.22;1.08;;;;;;;25.00;47.80;101011.44;4955812;29;20047;-81
2021/07/18 07:58:45;;;;;;;3.58;1.13;;;;;;;25.03;46.81;100998.41;4940476;29;20126;-81
2021/07/18 08:01:13;;;;;;;2.60;1.08;;;;;;;24.98;48.08;100999.88;4955926;28;20102;-81
2021/07/18 08:03:40;;;;;;;3.17;1.15;;;;;;;24.94;48.44;101003.91;4957007;29;20065;-81
2021/07/18 08:06:07;;;;;;;3.15;1.17;;;;;;;25.04;48.03;101007.41;4947454;28;20054;-81
2021/07/18 08:08:33;;;;;;;4.43;1.20;;;;;;;25.05;48.51;101003.69;4945852;28;20039;-81
2021/07/18 08:11:08;;;;;;;4.07;1.00;;;;;;;25.25;47.47;101002.59;4939523;29;20047;-81
2021/07/18 08:13:37;;;;;;;2.40;1.20;;;;;;;25.46;47.05;101000.47;4929269;29;20083;-81
2021/07/18 08:16:07;;;;;;;1.70;1.00;;;;;;;25.59;47.47;100993.78;4957844;29;20129;-81
2021/07/18 08:18:34;;;;;;;3.35;1.30;;;;;;;25.50;46.95;100993.69;4959220;28;20067;-81
2021/07/18 08:21:00;;;;;;;2.55;0.90;;;;;;;25.35;46.65;101000.66;4938837;29;20082;-81
2021/07/18 08:23:30;;;;;;;2.20;0.95;;;;;;;25.16;47.11;100987.25;4960297;29;20047;-81
2021/07/18 08:25:57;;;;;;;1.15;0.82;;;;;;;24.98;47.50;100992.63;4967092;28;20593;-81
2021/07/18 08:28:24;;;;;;;2.72;1.00;;;;;;;24.88;47.46;100988.19;4971919;28;20075;-81
2021/07/18 08:30:51;;;;;;;4.22;1.10;;;;;;;25.09;48.84;100992.41;4963367;29;20066;-81
2021/07/18 08:33:18;;;;;;;4.00;1.25;;;;;;;25.23;48.69;100993.75;4965760;29;20122;-81
2021/07/18 08:35:46;;;;;;;2.55;1.08;;;;;;;25.20;46.66;100991.34;4956277;29;20056;-81
2021/07/18 08:38:16;;;;;;;2.17;0.90;;;;;;;25.05;47.52;100993.69;4962818;28;20056;-81
2021/07/18 08:40:42;;;;;;;3.63;1.13;;;;;;;24.96;47.54;100991.06;4938354;29;20058;-81
2021/07/18 08:43:09;;;;;;;4.05;1.20;;;;;;;24.78;48.11;100991.81;4953671;28;20055;-81
2021/07/18 08:45:36;;;;;;;2.67;0.90;;;;;;;24.77;48.08;100987.41;4960667;28;20075;-81
2021/07/18 08:48:06;;;;;;;9.07;1.40;;;;;;;24.79;49.22;100993.53;4964928;29;20066;-81
2021/07/18 08:50:33;;;;;;;5.93;1.17;;;;;;;25.05;49.20;100996.41;4966623;28;20885;-81
2021/07/18 08:53:01;;;;;;;3.35;1.30;;;;;;;25.11;47.68;100984.97;4969800;28;20446;-81
2021/07/18 08:55:29;;;;;;;2.30;1.20;;;;;;;25.17;48.76;100995.22;4971585;28;20130;-81
2021/07/18 08:57:57;;;;;;;3.35;1.10;;;;;;;25.20;47.63;100995.91;4960771;29;20070;-82
2021/07/18 09:00:23;;;;;;;2.80;1.10;;;;;;;25.17;47.68;100997.09;4972008;29;20051;-82
2021/07/18 09:02:53;;;;;;;3.17;0.98;;;;;;;25.07;48.28;100988.13;4976517;28;20110;-80
2021/07/18 09:05:20;;;;;;;2.17;1.00;;;;;;;24.98;48.34;100980.94;4963829;29;20132;-82
2021/07/18 09:07:55;;;;;;;3.33;1.50;;;;;;;25.01;48.63;100988.75;4975993;28;20099;-82
2021/07/18 09:10:30;;;;;;;7.40;1.45;;;;;;;25.06;48.96;100979.16;4972080;29;20120;-82
2021/07/18 09:13:04;;;;;;;5.82;1.38;;;;;;;25.10;48.48;100979.72;4969766;29;20075;-82
2021/07/18 09:15:54;;;;;;;3.10;1.00;;;;;;;25.10;49.06;100985.97;4974097;29;20047;-80
2021/07/18 09:18:26;;;;;;;3.50;1.30;;;;;;;25.12;49.12;100975.00;4974572;29;20051;-79
2021/07/18 09:20:57;;;;;;;2.22;0.93;;;;;;;25.18;49.45;100982.53;4972878;28;20079;-79
2021/07/18 09:23:30;;;;;;;2.50;1.05;;;;;;;25.11;48.16;100976.00;4985605;28;20057;-80
2021/07/18 09:26:19;;;;;;;1.77;1.10;;;;;;;25.05;48.55;100969.31;4960832;29;20043;-80
2021/07/18 09:28:47;;;;;;;;;;;;;;;25.03;48.63;100973.16;4960063;29;20051;-79
2021/07/18 09:31:34;;;;;;;2.40;1.17;;;;;;;24.95;48.35;100967.66;4980357;28;20013;-81
2021/07/18 09:34:13;;;;;;;2.38;1.17;;;;;;;24.77;48.66;100973.84;4980770;28;20043;-81
2021/07/18 09:36:40;;;;;;;2.72;0.95;;;;;;;24.75;49.18;100964.16;4980972;28;20118;-80
2021/07/18 09:39:10;;;;;;;2.55;1.00;;;;;;;24.72;49.16;100965.31;4980354;28;20039;-80
2021/07/18 09:41:39;;;;;;;1.88;1.10;;;;;;;24.68;49.64;100963.94;4977899;28;20051;-80
2021/07/18 09:44:05;;;;;;;3.22;1.42;;;;;;;24.62;49.55;100963.66;4979979;28;20045;-81
2021/07/18 09:46:33;;;;;;;3.00;1.08;;;;;;;24.57;48.56;100953.25;4950875;28;20047;-80
2021/07/18 09:49:03;;;;;;;4.80;1.30;;;;;;;24.45;49.33;100959.88;4951006;29;20478;-81
2021/07/18 09:51:31;;;;;;;;;;;;;;;24.50;50.66;100951.31;4963423;28;20123;-81
2021/07/18 09:54:19;;;;;;;5.20;1.17;;;;;;;24.55;50.14;100944.47;4958869;28;19910;-80
2021/07/18 09:56:45;;;;;;;3.22;1.30;;;;;;;24.59;50.02;100950.41;4979929;28;20106;-81
2021/07/18 09:59:14;;;;;;;1.23;1.10;;;;;;;24.62;50.71;100947.41;4980993;28;20065;-81
2021/07/18 10:01:52;;;;;;;1.70;1.20;;;;;;;24.79;50.08;100952.88;4979415;28;20137;-81
2021/07/18 10:04:22;;;;;;;4.20;1.33;;;;;;;24.76;49.78;100953.19;4975699;28;20058;-81
2021/07/18 10:07:04;;;;;;;1.33;0.90;;;;;;;24.78;50.02;100956.59;4946832;29;20075;-81
2021/07/18 10:09:31;;;;;;;1.98;1.00;;;;;;;24.82;49.59;100941.75;4963834;28;20059;-80
2021/07/18 10:11:58;;;;;;;2.35;1.00;;;;;;;24.87;50.01;100954.81;4978565;28;20030;-81
2021/07/18 10:14:26;;;;;;;1.02;0.80;;;;;;;24.94;50.00;100941.59;4993578;28;20039;-81
2021/07/18 10:16:55;;;;;;;3.55;1.52;;;;;;;25.00;49.17;100947.25;4979200;28;20031;-81
2021/07/18 10:19:23;;;;;;;4.38;1.00;;;;;;;25.03;48.57;100943.38;4982661;28;20143;-81
2021/07/18 10:21:50;;;;;;;2.35;1.08;;;;;;;25.09;49.19;100934.63;4977874;28;20074;-81
2021/07/18 10:24:19;;;;;;;2.20;0.98;;;;;;;25.19;48.79;100940.84;4980160;28;20063;-80
2021/07/18 10:26:47;;;;;;;2.63;0.95;;;;;;;25.10;48.39;100944.47;4965130;28;20052;-81
2021/07/18 10:29:14;;;;;;;3.13;1.10;;;;;;;25.15;49.00;100939.47;4967640;29;20078;-80
2021/07/18 10:31:49;;;;;;;4.07;1.17;;;;;;;25.24;48.28;100941.25;4977173;28;20142;-80
2021/07/18 10:34:25;;;;;;;2.15;1.00;;;;;;;25.32;48.61;100940.50;4960485;28;20048;-80
2021/07/18 10:36:52;;;;;;;2.88;0.80;;;;;;;25.47;48.70;100942.50;4978603;28;20105;-80
2021/07/18 10:39:35;;;;;;;2.25;0.90;;;;;;;25.51;48.20;100935.75;4988850;28;20511;-80
2021/07/18 10:42:07;;;;;;;2.20;1.20;;;;;;;25.63;48.28;100938.28;4974291;28;20050;-80
2021/07/18 10:44:38;;;;;;;;;;;;;;;25.67;46.99;100931.50;4984601;28;20559;-81
2021/07/18 10:47:10;;;;;;;2.40;1.05;;;;;;;25.67;47.38;100934.22;4962266;29;19923;-80
2021/07/18 10:49:50;;;;;;;3.47;1.30;;;;;;;25.74;47.10;100928.03;4970394;29;20127;-80
2021/07/18 10:52:17;;;;;;;;;;;;;;;25.83;46.80;100926.22;4962281;29;20143;-79
2021/07/18 10:54:45;;;;;;;3.50;1.27;;;;;;;25.83;47.24;100921.63;4968816;29;19983;-79
2021/07/18 10:57:21;;;;;;;3.83;1.20;;;;;;;25.90;47.29;100916.44;4959134;28;20075;-80
2021/07/18 10:59:48;;;;;;;3.20;1.23;;;;;;;25.99;46.42;100915.47;4962890;29;20457;-80
2021/07/18 11:02:18;;;;;;;1.52;1.17;;;;;;;26.04;45.75;100920.44;4957736;28;20143;-81
2021/07/18 11:04:49;;;;;;;2.33;1.10;;;;;;;26.00;45.65;100925.34;4970543;28;20059;-80
2021/07/18 11:07:20;;;;;;;3.20;1.13;;;;;;;26.05;45.63;100914.84;4949373;28;20055;-81
2021/07/18 11:09:50;;;;;;;1.75;1.20;;;;;;;26.11;45.25;100916.09;4959090;29;20254;-81
2021/07/18 11:12:39;;;;;;;3.08;1.33;;;;;;;26.19;45.81;100897.13;4960062;29;20051;-80
2021/07/18 11:15:12;;;;;;;2.33;1.20;;;;;;;26.37;45.75;100902.53;4962490;29;20457;-80
2021/07/18 11:18:04;;;;;;;6.60;1.77;;;;;;;26.46;45.60;100909.69;4970874;28;20130;-81
2021/07/18 11:20:50;;;;;;;15.80;4.43;;;;;;;26.53;45.61;100903.47;4956015;28;20071;-80
2021/07/18 11:23:33;;;;;;;5.75;2.30;;;;;;;26.51;45.76;100910.91;4961731;29;20582;-81
2021/07/18 11:26:04;;;;;;;2.80;1.35;;;;;;;26.45;44.10;100899.84;4962332;28;20486;-81
2021/07/18 11:28:35;;;;;;;5.32;2.15;;;;;;;26.46;45.16;100910.53;4965250;28;20047;-80
2021/07/18 11:31:18;;;;;;;2.72;1.60;;;;;;;26.46;45.45;100891.53;4965505;28;20109;-81
2021/07/18 11:33:46;;;;;;;3.80;1.27;;;;;;;26.49;44.69;100885.78;4959926;28;20051;-81